Time;durP1;ratioP1;P1;durP2;ratioP2;P2;SDS_P1;SDS_P2;PMS_P1;PMS_P2;Temp;Humidity;BMP_temperature;BMP_pressure;BME280_temperature;BME280_humidity;BME280_pressure;Samples;Min_cycle;Max_cycle;Signal;HPM_P1;HPM_P2
2023/06/12 00:01:56;;;;;;;6.90;6.03;;;18.80;49.60;;;;;;6259143;28;20242;-79
2023/06/12 00:04:59;;;;;;;6.87;6.37;;;18.70;50.10;;;;;;6272100;28;20233;-79
2023/06/12 00:08:05;;;;;;;6.30;5.80;;;18.60;49.80;;;;;;6267890;28;20230;-78
2023/06/12 00:11:12;;;;;;;6.03;5.63;;;18.50;49.90;;;;;;6268188;28;20641;-80
2023/06/12 00:14:15;;;;;;;6.63;6.07;;;18.50;49.80;;;;;;6272858;28;20324;-79
2023/06/12 00:17:19;;;;;;;5.97;5.57;;;18.40;49.60;;;;;;6268925;28;20284;-80
2023/06/12 00:20:22;;;;;;;6.17;5.57;;;18.30;49.50;;;;;;6272932;28;20296;-81
2023/06/12 00:23:26;;;;;;;5.90;5.43;;;18.30;50.30;;;;;;6270052;28;20237;-78
2023/06/12 00:26:29;;;;;;;6.27;5.97;;;18.20;50.10;;;;;;6267645;28;20829;-80
2023/06/12 00:29:32;;;;;;;6.27;5.77;;;18.10;50.50;;;;;;6279869;28;20334;-80
2023/06/12 00:32:36;;;;;;;6.53;5.93;;;18.10;50.00;;;;;;6260259;28;20742;-80
2023/06/12 00:35:39;;;;;;;6.03;5.63;;;18.10;49.60;;;;;;6276096;28;20286;-78
2023/06/12 00:38:43;;;;;;;5.53;5.33;;;18.10;49.70;;;;;;6261922;28;20235;-79
2023/06/12 00:41:46;;;;;;;6.67;6.00;;;18.00;50.00;;;;;;6273692;28;20241;-81
2023/06/12 00:44:49;;;;;;;6.60;5.57;;;18.00;49.70;;;;;;6287357;28;20656;-80
2023/06/12 00:47:56;;;;;;;6.50;5.90;;;18.00;49.90;;;;;;6273104;28;20894;-80
2023/06/12 00:51:01;;;;;;;5.07;4.87;;;17.90;49.60;;;;;;6265805;28;20230;-80
2023/06/12 00:54:05;;;;;;;6.03;5.60;;;17.80;49.80;;;;;;6274268;28;20226;-81
2023/06/12 00:57:08;;;;;;;5.30;5.10;;;17.80;48.90;;;;;;6269018;28;20253;-78
2023/06/12 01:00:14;;;;;;;5.77;5.37;;;17.80;49.30;;;;;;6259975;28;20229;-79
2023/06/12 01:03:21;;;;;;;6.23;5.70;;;17.80;49.10;;;;;;6280530;28;20651;-80
2023/06/12 01:06:32;;;;;;;5.67;5.17;;;17.70;48.90;;;;;;6286733;28;20241;-80
2023/06/12 01:09:44;;;;;;;7.43;5.40;;;17.60;49.10;;;;;;6250149;28;20300;-81
2023/06/12 01:12:49;;;;;;;5.83;5.30;;;17.60;49.00;;;;;;6268552;28;20328;-78
2023/06/12 01:15:52;;;;;;;5.17;4.77;;;17.50;48.90;;;;;;6280344;28;20328;-80
2023/06/12 01:18:57;;;;;;;5.57;5.17;;;17.50;49.10;;;;;;6271667;28;20226;-80
2023/06/12 01:22:08;;;;;;;5.60;5.30;;;17.50;48.50;;;;;;6280580;28;25189;-79
2023/06/12 01:25:32;;;;;;;5.20;4.90;;;17.40;48.50;;;;;;6280795;28;20713;-79
2023/06/12 01:29:17;;;;;;;5.27;4.97;;;17.40;48.70;;;;;;6270026;28;20237;-80
2023/06/12 01:32:24;;;;;;;5.37;5.00;;;17.30;49.10;;;;;;6232635;28;20328;-80
2023/06/12 01:35:30;;;;;;;4.97;4.70;;;17.20;49.00;;;;;;6267164;28;20254;-80
2023/06/12 01:38:36;;;;;;;7.57;5.47;;;17.20;48.40;;;;;;6269548;28;20238;-79
2023/06/12 01:41:40;;;;;;;5.97;5.47;;;17.20;48.20;;;;;;6269843;28;20762;-81
2023/06/12 01:44:43;;;;;;;4.93;4.50;;;17.20;48.70;;;;;;6274789;28;20260;-80
2023/06/12 01:47:48;;;;;;;5.63;5.20;;;17.20;47.80;;;;;;6274508;28;20245;-80
2023/06/12 01:50:51;;;;;;;5.20;4.90;;;17.20;48.20;;;;;;6256552;28;20246;-78
2023/06/12 01:53:54;;;;;;;5.40;5.00;;;17.20;47.40;;;;;;6278690;28;20287;-80
2023/06/12 01:56:57;;;;;;;5.03;4.63;;;17.20;47.60;;;;;;6271072;28;20313;-82
2023/06/12 02:00:04;;;;;;;4.83;4.60;;;17.10;47.60;;;;;;6285694;28;20312;-79
2023/06/12 02:03:10;;;;;;;4.63;4.30;;;17.10;47.80;;;;;;6263358;28;20234;-81
2023/06/12 02:06:14;;;;;;;4.93;4.67;;;17.00;47.90;;;;;;6265127;28;20233;-79
2023/06/12 02:09:18;;;;;;;4.57;4.43;;;17.00;47.20;;;;;;6277365;28;20713;-81
2023/06/12 02:12:21;;;;;;;6.60;5.03;;;17.10;46.70;;;;;;6266193;28;20762;-81
2023/06/12 02:15:25;;;;;;;5.37;4.50;;;17.10;47.80;;;;;;6270487;28;20367;-79
2023/06/12 02:18:30;;;;;;;4.60;4.27;;;17.00;47.60;;;;;;6271092;28;20367;-77
2023/06/12 02:21:33;;;;;;;4.70;4.40;;;17.00;47.20;;;;;;6273202;28;20273;-81
2023/06/12 02:24:37;;;;;;;5.20;4.87;;;17.00;47.50;;;;;;6254189;28;20241;-79
2023/06/12 02:27:40;;;;;;;5.23;4.93;;;17.00;47.60;;;;;;6277388;28;20233;-79
2023/06/12 02:30:44;;;;;;;4.90;4.50;;;16.90;48.10;;;;;;6280206;28;20251;-80
2023/06/12 02:33:49;;;;;;;4.47;4.27;;;16.90;47.50;;;;;;6266284;28;20233;-79
2023/06/12 02:36:52;;;;;;;5.37;5.00;;;16.80;47.70;;;;;;6263563;28;20760;-78
2023/06/12 02:39:55;;;;;;;5.60;5.10;;;16.80;47.90;;;;;;6276645;28;20771;-81
2023/06/12 02:42:58;;;;;;;6.37;5.67;;;16.80;48.00;;;;;;6264906;28;20321;-78
2023/06/12 02:46:01;;;;;;;5.57;5.10;;;16.80;48.60;;;;;;6279439;28;20248;-81
2023/06/12 02:49:05;;;;;;;6.20;5.90;;;16.80;48.70;;;;;;6276813;28;20246;-81
2023/06/12 02:52:08;;;;;;;5.90;5.50;;;16.70;48.60;;;;;;6263346;28;20315;-81
2023/06/12 02:55:12;;;;;;;6.47;6.07;;;16.70;48.80;;;;;;6262230;28;20283;-81
2023/06/12 02:58:15;;;;;;;8.43;5.70;;;16.60;49.20;;;;;;6273288;28;20742;-79
2023/06/12 03:01:20;;;;;;;5.60;5.20;;;16.60;49.30;;;;;;6278827;28;20772;-81
2023/06/12 03:04:24;;;;;;;10.53;5.50;;;16.60;49.10;;;;;;6254276;28;20725;-81
2023/06/12 03:07:28;;;;;;;5.43;5.23;;;16.50;49.30;;;;;;6268825;28;20376;-80
2023/06/12 03:10:32;;;;;;;5.80;5.40;;;16.50;49.40;;;;;;6271346;28;20887;-81
2023/06/12 03:13:35;;;;;;;5.83;5.53;;;16.50;49.50;;;;;;6263243;28;20626;-82
2023/06/12 03:16:39;;;;;;;6.10;5.70;;;16.40;49.50;;;;;;6280924;28;20260;-81
2023/06/12 03:19:44;;;;;;;6.57;5.67;;;16.40;49.60;;;;;;6278788;28;20314;-81
2023/06/12 03:22:48;;;;;;;6.30;5.70;;;16.40;49.70;;;;;;6282288;28;20226;-80
2023/06/12 03:25:52;;;;;;;5.33;5.03;;;16.40;49.50;;;;;;6285488;28;20507;-79
2023/06/12 03:28:55;;;;;;;5.77;5.43;;;16.40;49.70;;;;;;6287141;28;20238;-80
2023/06/12 03:31:58;;;;;;;5.63;5.20;;;16.40;49.70;;;;;;6284708;28;20299;-76
2023/06/12 03:35:03;;;;;;;5.70;5.30;;;16.30;49.70;;;;;;6285903;28;20267;-79
2023/06/12 03:38:06;;;;;;;5.90;5.37;;;16.30;49.90;;;;;;6273105;28;22170;-77
2023/06/12 03:41:09;;;;;;;5.67;5.17;;;16.20;49.70;;;;;;6265375;28;20253;-77
2023/06/12 03:44:12;;;;;;;5.80;5.30;;;16.20;49.60;;;;;;6262546;28;20792;-80
2023/06/12 03:47:15;;;;;;;5.90;5.33;;;16.20;49.80;;;;;;6267440;28;21016;-79
2023/06/12 03:50:22;;;;;;;6.80;6.10;;;16.30;49.50;;;;;;6272846;28;20248;-80
2023/06/12 03:53:25;;;;;;;7.13;6.40;;;16.30;49.30;;;;;;6266557;28;20301;-80
2023/06/12 03:56:28;;;;;;;5.70;5.30;;;16.30;49.60;;;;;;6264626;28;20741;-80
2023/06/12 03:59:32;;;;;;;5.50;5.10;;;16.30;49.40;;;;;;6276396;28;20230;-78
2023/06/12 04:02:36;;;;;;;6.93;5.60;;;16.20;49.20;;;;;;6276114;28;20262;-80
2023/06/12 04:05:41;;;;;;;5.40;4.90;;;16.20;49.30;;;;;;6238834;28;20230;-78
2023/06/12 04:08:45;;;;;;;5.20;4.80;;;16.20;49.20;;;;;;6264221;28;20642;-79
2023/06/12 04:11:48;;;;;;;5.53;5.13;;;16.20;49.70;;;;;;6272259;28;20995;-78
2023/06/12 04:14:51;;;;;;;7.30;5.30;;;16.30;49.30;;;;;;6265516;28;20254;-79
2023/06/12 04:17:55;;;;;;;5.80;5.30;;;16.40;49.20;;;;;;6279373;28;20230;-79
2023/06/12 04:21:00;;;;;;;5.20;4.90;;;16.40;49.00;;;;;;6277681;28;20329;-80
2023/06/12 04:24:05;;;;;;;4.30;4.10;;;16.40;49.30;;;;;;6263795;28;20261;-78
2023/06/12 04:27:09;;;;;;;5.43;5.17;;;16.40;49.50;;;;;;6268451;28;20683;-79
2023/06/12 04:30:15;;;;;;;5.83;5.30;;;16.50;49.30;;;;;;6274615;28;20229;-79
2023/06/12 04:33:18;;;;;;;6.07;5.20;;;16.50;49.40;;;;;;6266230;28;20238;-78
2023/06/12 04:36:23;;;;;;;6.50;5.33;;;16.60;48.90;;;;;;6274732;28;20379;-79
2023/06/12 04:39:29;;;;;;;5.03;4.60;;;16.60;48.70;;;;;;6266140;28;20241;-80
2023/06/12 04:42:32;;;;;;;5.87;5.33;;;16.70;48.50;;;;;;6263814;28;20609;-79
2023/06/12 04:45:36;;;;;;;5.33;4.90;;;16.80;48.90;;;;;;6265691;28;20701;-78
2023/06/12 04:48:41;;;;;;;6.33;5.17;;;16.90;48.40;;;;;;6262226;28;20245;-81
2023/06/12 04:51:48;;;;;;;7.43;5.47;;;17.00;48.40;;;;;;6266489;28;20234;-80
2023/06/12 04:54:52;;;;;;;7.67;4.90;;;17.00;48.40;;;;;;6266587;28;20300;-80
2023/06/12 04:57:55;;;;;;;5.63;5.23;;;17.20;48.40;;;;;;6256357;28;20551;-80
2023/06/12 05:01:00;;;;;;;5.37;4.90;;;17.50;47.70;;;;;;6256324;28;20317;-81
2023/06/12 05:04:04;;;;;;;7.57;5.07;;;17.80;47.60;;;;;;6272616;28;20792;-80
2023/06/12 05:07:16;;;;;;;5.17;4.77;;;18.00;47.10;;;;;;6267106;28;20240;-79
2023/06/12 05:10:20;;;;;;;5.10;4.90;;;18.40;47.20;;;;;;6259408;28;20242;-78
2023/06/12 05:13:24;;;;;;;4.90;4.50;;;18.70;46.70;;;;;;6258248;28;20238;-80
2023/06/12 05:16:28;;;;;;;4.67;4.37;;;19.10;46.00;;;;;;6248144;28;20331;-78
2023/06/12 05:19:32;;;;;;;4.63;4.23;;;19.40;45.70;;;;;;6260425;28;20237;-81
2023/06/12 05:22:37;;;;;;;5.63;4.27;;;19.70;45.70;;;;;;6268835;28;20348;-80
2023/06/12 05:25:40;;;;;;;5.10;4.70;;;19.90;44.60;;;;;;6268300;28;20643;-81
2023/06/12 05:28:43;;;;;;;5.27;4.77;;;20.30;45.00;;;;;;6272046;28;20662;-79
2023/06/12 05:31:46;;;;;;;4.90;4.60;;;20.50;44.30;;;;;;6265163;28;20238;-82
2023/06/12 05:34:49;;;;;;;5.20;4.70;;;20.90;43.90;;;;;;6264422;28;20258;-80
2023/06/12 05:37:54;;;;;;;6.50;4.60;;;21.10;44.00;;;;;;6262201;28;20238;-79
2023/06/12 05:40:58;;;;;;;4.83;4.43;;;21.30;43.70;;;;;;6258825;28;20237;-78
2023/06/12 05:44:03;;;;;;;4.23;4.13;;;21.60;43.40;;;;;;6270466;28;20875;-79
2023/06/12 05:47:08;;;;;;;5.30;4.90;;;21.90;43.20;;;;;;6271162;28;20253;-79
2023/06/12 05:50:13;;;;;;;5.53;5.13;;;22.20;42.60;;;;;;6257906;28;20241;-78
2023/06/12 05:53:18;;;;;;;7.43;4.83;;;22.50;43.00;;;;;;6260078;28;20245;-78
2023/06/12 05:56:22;;;;;;;5.53;4.80;;;22.60;41.80;;;;;;6267015;28;20245;-79
2023/06/12 05:59:25;;;;;;;4.20;3.90;;;22.70;42.20;;;;;;6269114;28;20269;-78
2023/06/12 06:02:28;;;;;;;7.57;5.37;;;23.10;42.20;;;;;;6261028;28;20245;-79
2023/06/12 06:05:32;;;;;;;6.70;4.93;;;23.50;42.00;;;;;;6255185;28;20230;-77
2023/06/12 06:08:38;;;;;;;5.10;4.70;;;23.60;41.30;;;;;;6256400;28;20602;-78
2023/06/12 06:11:41;;;;;;;5.73;5.20;;;23.60;40.90;;;;;;6271170;28;20291;-79
2023/06/12 06:14:44;;;;;;;5.23;4.80;;;23.80;41.50;;;;;;6269705;28;20230;-79
2023/06/12 06:17:47;;;;;;;5.27;4.57;;;24.00;41.20;;;;;;6260643;28;20234;-79
2023/06/12 06:20:52;;;;;;;11.37;4.80;;;24.10;41.10;;;;;;6265455;28;20242;-80
2023/06/12 06:23:56;;;;;;;6.93;5.13;;;24.40;41.50;;;;;;6269225;28;20309;-80
2023/06/12 06:27:00;;;;;;;6.07;5.20;;;24.60;40.60;;;;;;6256026;28;20234;-81
2023/06/12 06:30:03;;;;;;;5.43;5.03;;;24.80;40.40;;;;;;6269698;28;20371;-80
2023/06/12 06:33:07;;;;;;;7.00;5.70;;;24.80;40.70;;;;;;6264561;28;20238;-79
2023/06/12 06:36:10;;;;;;;9.93;5.30;;;25.00;40.80;;;;;;6254032;28;21116;-78
2023/06/12 06:39:14;;;;;;;7.17;4.93;;;25.00;40.70;;;;;;6281915;28;20229;-79
2023/06/12 06:42:17;;;;;;;5.53;5.13;;;25.40;41.20;;;;;;6267013;28;20241;-81
2023/06/12 06:45:20;;;;;;;5.43;4.97;;;25.70;40.20;;;;;;6268409;28;20322;-80
2023/06/12 06:48:24;;;;;;;5.40;5.00;;;25.90;40.20;;;;;;6261663;28;20814;-82
2023/06/12 06:51:27;;;;;;;6.67;5.10;;;26.00;39.60;;;;;;6265096;28;20245;-82
2023/06/12 06:54:31;;;;;;;6.93;5.53;;;26.00;39.50;;;;;;6260019;28;20245;-80
2023/06/12 06:57:37;;;;;;;5.50;5.00;;;25.90;39.90;;;;;;6263644;28;20241;-80
2023/06/12 07:00:40;;;;;;;7.47;4.97;;;25.70;39.90;;;;;;6264756;28;20237;-83
2023/06/12 07:03:43;;;;;;;6.33;5.10;;;25.90;39.70;;;;;;6267956;28;20245;-79
2023/06/12 07:06:46;;;;;;;7.90;5.10;;;25.80;40.00;;;;;;6263989;28;20250;-80
2023/06/12 07:09:51;;;;;;;6.20;5.37;;;25.80;39.90;;;;;;6268854;28;20273;-79
2023/06/12 07:12:56;;;;;;;5.60;5.23;;;26.00;39.90;;;;;;6265134;28;20290;-83
2023/06/12 07:15:59;;;;;;;9.53;5.47;;;26.00;39.70;;;;;;6278285;28;20748;-80
2023/06/12 07:19:04;;;;;;;7.10;4.77;;;26.10;40.70;;;;;;6267538;28;20694;-81
2023/06/12 07:22:07;;;;;;;7.33;5.23;;;26.20;40.00;;;;;;6268193;28;20383;-79
2023/06/12 07:25:12;;;;;;;5.37;5.07;;;26.30;39.80;;;;;;6278003;28;20773;-81
2023/06/12 07:28:18;;;;;;;8.13;5.47;;;26.20;40.00;;;;;;6269284;28;20230;-80
2023/06/12 07:31:21;;;;;;;5.77;5.27;;;26.20;40.40;;;;;;6265185;28;20234;-81
2023/06/12 07:34:24;;;;;;;6.83;5.20;;;26.00;39.80;;;;;;6269855;28;20226;-80
2023/06/12 07:37:35;;;;;;;11.60;5.73;;;26.00;40.80;;;;;;6272101;28;20237;-79
2023/06/12 07:40:40;;;;;;;5.50;4.40;;;25.90;39.70;;;;;;6269297;28;20233;-79
2023/06/12 07:43:43;;;;;;;4.80;4.50;;;25.80;40.10;;;;;;6263029;28;20317;-80
2023/06/12 07:46:46;;;;;;;5.20;4.90;;;25.70;39.90;;;;;;6264985;28;20339;-82
2023/06/12 07:49:50;;;;;;;5.43;5.03;;;25.50;40.20;;;;;;6267810;28;20733;-80
2023/06/12 07:52:53;;;;;;;15.30;5.73;;;25.40;41.10;;;;;;6269910;28;20322;-82
2023/06/12 07:55:57;;;;;;;8.70;5.10;;;25.20;39.70;;;;;;6274492;28;20240;-82
2023/06/12 07:59:07;;;;;;;6.83;4.83;;;25.00;39.40;;;;;;6259337;28;20565;-79
2023/06/12 08:02:10;;;;;;;7.50;4.67;;;24.90;40.70;;;;;;6273254;28;20242;-78
2023/06/12 08:05:14;;;;;;;8.63;4.83;;;24.60;40.80;;;;;;6278264;28;20227;-78
2023/06/12 08:08:17;;;;;;;5.63;4.67;;;24.60;40.50;;;;;;6272322;28;20588;-78
2023/06/12 08:11:22;;;;;;;9.07;4.73;;;24.60;40.70;;;;;;6267947;28;20505;-80
2023/06/12 08:14:25;;;;;;;4.83;4.23;;;24.70;40.70;;;;;;6272654;28;20360;-80
2023/06/12 08:17:29;;;;;;;5.67;4.37;;;24.80;40.20;;;;;;6270631;28;20321;-81
2023/06/12 08:20:33;;;;;;;4.70;4.37;;;25.00;38.60;;;;;;6265641;28;20328;-78
2023/06/12 08:23:38;;;;;;;5.50;4.33;;;25.00;39.30;;;;;;6275081;28;20240;-76
2023/06/12 08:26:43;;;;;;;8.37;4.40;;;24.90;39.00;;;;;;6270426;28;20229;-80
2023/06/12 08:29:46;;;;;;;8.47;4.50;;;24.80;38.60;;;;;;6264702;28;20249;-82
2023/06/12 08:32:49;;;;;;;5.60;4.40;;;24.80;38.60;;;;;;6284554;28;20877;-81
2023/06/12 08:35:53;;;;;;;7.27;4.23;;;24.60;39.20;;;;;;6268574;28;20241;-81
2023/06/12 08:38:56;;;;;;;5.10;4.77;;;24.60;39.60;;;;;;6268159;28;20737;-79
2023/06/12 08:42:05;;;;;;;4.73;4.40;;;24.90;38.50;;;;;;6273257;28;20237;-81
2023/06/12 08:45:14;;;;;;;6.10;4.50;;;25.00;38.70;;;;;;6271900;28;20311;-78
2023/06/12 08:48:28;;;;;;;5.33;4.77;;;25.00;37.90;;;;;;6274278;28;20672;-80
2023/06/12 08:51:32;;;;;;;5.07;4.73;;;25.00;37.60;;;;;;6277287;28;20375;-80
2023/06/12 08:54:37;;;;;;;5.07;4.77;;;25.00;38.00;;;;;;6270581;28;20221;-80
2023/06/12 08:57:42;;;;;;;8.03;5.50;;;25.00;39.00;;;;;;6273050;28;20820;-80
2023/06/12 09:00:45;;;;;;;5.87;5.30;;;25.30;38.90;;;;;;6266684;28;20319;-80
2023/06/12 09:03:54;;;;;;;6.23;4.93;;;25.30;38.50;;;;;;6267597;28;20261;-81
2023/06/12 09:07:01;;;;;;;5.13;4.60;;;25.40;38.20;;;;;;6266736;28;20261;-79
2023/06/12 09:10:05;;;;;;;4.73;4.50;;;25.50;38.60;;;;;;6262920;28;20272;-79
2023/06/12 09:13:18;;;;;;;10.73;4.90;;;25.50;39.00;;;;;;6266710;28;20230;-80
2023/06/12 09:16:21;;;;;;;5.10;4.70;;;25.50;39.00;;;;;;6269340;28;20237;-81
2023/06/12 09:19:25;;;;;;;4.60;4.40;;;25.30;38.60;;;;;;6266738;28;20273;-82
2023/06/12 09:22:29;;;;;;;5.10;4.63;;;25.40;38.90;;;;;;6274809;28;20236;-81
2023/06/12 09:25:35;;;;;;;4.63;4.33;;;25.20;38.90;;;;;;6269751;28;20229;-80
2023/06/12 09:28:42;;;;;;;5.50;5.13;;;25.40;39.40;;;;;;6269446;28;20225;-81
2023/06/12 09:31:51;;;;;;;4.80;4.50;;;25.60;39.10;;;;;;6278097;28;20611;-79
2023/06/12 09:34:56;;;;;;;5.37;5.00;;;25.40;38.80;;;;;;6273615;28;20240;-80
2023/06/12 09:38:00;;;;;;;9.23;5.37;;;25.20;39.20;;;;;;6261392;28;20324;-80
2023/06/12 09:41:04;;;;;;;5.50;5.20;;;25.00;40.10;;;;;;6270117;28;20242;-82
2023/06/12 09:44:09;;;;;;;5.53;5.00;;;24.90;39.30;;;;;;6262005;28;20230;-80
2023/06/12 09:47:12;;;;;;;5.37;4.77;;;25.00;39.30;;;;;;6268783;28;20237;-83
2023/06/12 09:50:17;;;;;;;8.53;5.17;;;25.00;39.60;;;;;;6282966;28;20229;-80
2023/06/12 09:53:22;;;;;;;5.47;5.07;;;25.00;40.00;;;;;;6267126;28;20242;-79
2023/06/12 09:56:27;;;;;;;5.13;4.93;;;24.70;39.50;;;;;;6264442;28;20871;-82
2023/06/12 09:59:33;;;;;;;5.50;5.23;;;24.60;39.80;;;;;;6265597;28;20230;-80
2023/06/12 10:02:42;;;;;;;4.60;4.20;;;24.70;40.20;;;;;;6275466;28;20248;-80
2023/06/12 10:05:51;;;;;;;5.40;5.10;;;24.80;40.40;;;;;;6263095;28;20234;-78
2023/06/12 10:08:55;;;;;;;5.47;4.97;;;25.20;40.50;;;;;;6273899;28;20245;-80
2023/06/12 10:12:00;;;;;;;7.13;5.67;;;25.30;40.20;;;;;;6269353;28;20237;-79
2023/06/12 10:15:09;;;;;;;5.97;5.57;;;25.20;41.40;;;;;;6283044;28;20724;-80
2023/06/12 10:18:12;;;;;;;6.40;5.80;;;25.00;40.90;;;;;;6274911;28;20649;-81
2023/06/12 10:21:16;;;;;;;5.10;4.73;;;25.20;41.00;;;;;;6271320;28;20238;-79
2023/06/12 10:24:20;;;;;;;5.57;5.07;;;25.40;41.10;;;;;;6271155;28;20846;-80
2023/06/12 10:27:24;;;;;;;5.67;5.17;;;25.60;40.90;;;;;;6272288;28;20388;-79
2023/06/12 10:30:29;;;;;;;6.47;5.40;;;25.80;41.50;;;;;;6269726;28;20751;-79
2023/06/12 10:33:32;;;;;;;5.63;5.13;;;25.80;41.40;;;;;;6265239;28;20238;-81
2023/06/12 10:36:41;;;;;;;5.03;4.83;;;25.80;41.30;;;;;;6262922;28;20768;-80
2023/06/12 10:39:47;;;;;;;7.97;5.47;;;25.80;41.10;;;;;;6258225;28;20300;-80
2023/06/12 10:43:01;;;;;;;4.83;4.63;;;25.90;41.00;;;;;;6257890;28;20347;-82
2023/06/12 10:46:12;;;;;;;7.13;6.40;;;25.60;40.90;;;;;;6270001;28;20264;-80
2023/06/12 10:49:18;;;;;;;5.70;5.40;;;25.60;41.60;;;;;;6259699;28;20238;-81
2023/06/12 10:52:23;;;;;;;4.80;4.50;;;25.50;41.50;;;;;;6261565;28;20269;-79
2023/06/12 10:55:32;;;;;;;5.37;4.87;;;25.60;41.60;;;;;;6269540;28;20851;-81
2023/06/12 10:58:39;;;;;;;5.70;5.40;;;25.80;41.10;;;;;;6257389;28;20234;-81
2023/06/12 11:01:45;;;;;;;5.90;5.50;;;25.80;40.80;;;;;;6273179;28;20229;-79
2023/06/12 11:04:49;;;;;;;5.63;4.97;;;25.70;40.90;;;;;;6268840;28;20715;-81
2023/06/12 11:07:55;;;;;;;6.07;5.67;;;25.60;41.60;;;;;;6276948;28;20225;-80
2023/06/12 11:10:59;;;;;;;7.80;5.73;;;25.60;41.20;;;;;;6262759;28;20236;-81
2023/06/12 11:14:02;;;;;;;5.63;5.10;;;25.60;41.00;;;;;;6279839;28;20638;-80
2023/06/12 11:17:07;;;;;;;5.70;5.13;;;25.50;40.50;;;;;;6273361;28;20237;-80
2023/06/12 11:20:11;;;;;;;5.60;5.30;;;25.30;40.80;;;;;;6269574;28;20307;-78
2023/06/12 11:23:16;;;;;;;7.27;5.20;;;25.20;41.20;;;;;;6274433;28;20257;-81
2023/06/12 11:26:20;;;;;;;6.17;5.43;;;25.10;40.50;;;;;;6274318;28;20459;-80
2023/06/12 11:29:25;;;;;;;6.23;5.70;;;25.10;40.40;;;;;;6279071;28;20235;-83
2023/06/12 11:32:31;;;;;;;6.17;5.20;;;25.20;40.80;;;;;;6263334;28;20242;-80
2023/06/12 11:35:39;;;;;;;6.37;5.77;;;25.20;41.20;;;;;;6264415;28;20257;-80
2023/06/12 11:38:42;;;;;;;6.97;5.87;;;25.40;41.00;;;;;;6273576;28;20290;-82
2023/06/12 11:41:51;;;;;;;9.80;5.70;;;25.80;40.70;;;;;;6270843;28;20719;-81
2023/06/12 11:44:55;;;;;;;6.17;5.87;;;26.30;40.10;;;;;;6270821;28;20242;-80
2023/06/12 11:48:00;;;;;;;5.90;5.43;;;26.40;39.30;;;;;;6261957;28;20762;-81
2023/06/12 11:51:07;;;;;;;5.87;5.57;;;26.60;39.20;;;;;;6266318;28;20292;-78
2023/06/12 11:54:15;;;;;;;6.53;5.83;;;26.70;39.70;;;;;;6258953;28;20234;-81
2023/06/12 11:57:18;;;;;;;5.47;5.00;;;26.90;39.30;;;;;;6270568;28;20249;-82
2023/06/12 12:00:22;;;;;;;6.87;6.20;;;27.00;39.20;;;;;;6268529;28;20710;-81
2023/06/12 12:03:27;;;;;;;5.73;5.30;;;27.10;39.20;;;;;;6275853;28;20307;-83
2023/06/12 12:06:31;;;;;;;9.20;5.80;;;27.10;39.50;;;;;;6277108;28;20241;-83
2023/06/12 12:09:34;;;;;;;6.07;5.63;;;26.90;38.70;;;;;;6270409;28;20225;-81
2023/06/12 12:12:42;;;;;;;9.77;5.23;;;26.80;39.00;;;;;;6269378;28;20649;-84
2023/06/12 12:15:45;;;;;;;6.47;5.23;;;26.70;39.20;;;;;;6275748;28;20244;-79
2023/06/12 12:18:51;;;;;;;5.63;5.33;;;26.60;38.70;;;;;;6268459;28;20615;-82
2023/06/12 12:21:56;;;;;;;5.40;5.10;;;26.40;38.70;;;;;;6268587;28;20244;-80
2023/06/12 12:25:00;;;;;;;4.97;4.67;;;26.20;38.70;;;;;;6265365;28;20866;-85
2023/06/12 12:28:03;;;;;;;7.07;4.80;;;26.10;39.20;;;;;;6274508;28;20299;-83
2023/06/12 12:31:07;;;;;;;5.67;5.17;;;26.40;39.30;;;;;;6265387;28;20234;-80
2023/06/12 12:34:11;;;;;;;9.10;5.67;;;26.60;38.70;;;;;;6269119;28;20230;-81
2023/06/12 12:37:14;;;;;;;5.40;5.00;;;26.70;39.50;;;;;;6261072;28;20237;-81
2023/06/12 12:40:18;;;;;;;5.00;4.80;;;26.90;39.10;;;;;;6264622;28;20238;-82
2023/06/12 12:43:22;;;;;;;6.50;5.90;;;27.20;38.20;;;;;;6264524;28;20714;-81
2023/06/12 12:46:26;;;;;;;5.60;5.30;;;27.40;38.20;;;;;;6272216;28;20242;-80
2023/06/12 12:49:31;;;;;;;6.20;5.70;;;27.30;38.20;;;;;;6266644;28;20323;-80
2023/06/12 12:52:41;;;;;;;5.60;5.10;;;27.00;38.40;;;;;;6281633;28;20242;-82
2023/06/12 12:55:44;;;;;;;25.50;6.97;;;26.70;38.20;;;;;;6283452;28;20315;-81
2023/06/12 12:58:47;;;;;;;6.00;4.50;;;26.70;38.50;;;;;;6268536;28;20320;-83
2023/06/12 13:01:50;;;;;;;9.70;4.77;;;26.70;38.30;;;;;;6270856;28;20237;-83
2023/06/12 13:04:55;;;;;;;5.10;4.63;;;26.70;37.80;;;;;;6260813;28;20233;-80
2023/06/12 13:07:58;;;;;;;5.03;4.63;;;26.80;38.00;;;;;;6273706;28;20710;-83
2023/06/12 13:11:01;;;;;;;5.70;5.20;;;26.80;38.10;;;;;;6277011;28;20302;-83
2023/06/12 13:14:04;;;;;;;11.73;5.93;;;26.80;38.10;;;;;;6270650;28;20257;-81
2023/06/12 13:17:08;;;;;;;5.17;4.73;;;26.60;38.20;;;;;;6277018;28;20343;-85
2023/06/12 13:20:14;;;;;;;6.10;4.80;;;26.30;38.20;;;;;;6270967;28;20230;-81
2023/06/12 13:23:17;;;;;;;5.57;4.23;;;26.30;38.00;;;;;;6277356;28;20777;-81
2023/06/12 13:26:21;;;;;;;5.20;4.80;;;26.50;38.00;;;;;;6279495;28;20234;-81
2023/06/12 13:29:24;;;;;;;4.63;4.27;;;26.70;37.70;;;;;;6272087;28;20271;-82
2023/06/12 13:32:27;;;;;;;5.77;4.60;;;26.90;37.60;;;;;;6274713;28;20250;-82
2023/06/12 13:35:31;;;;;;;5.60;5.03;;;27.00;37.10;;;;;;6265487;28;20321;-83
2023/06/12 13:38:35;;;;;;;5.37;4.97;;;27.10;37.20;;;;;;6265942;28;20734;-81
2023/06/12 13:41:38;;;;;;;4.67;4.47;;;27.10;37.00;;;;;;6277638;28;20249;-83
2023/06/12 13:44:41;;;;;;;5.10;4.80;;;26.90;37.70;;;;;;6262485;28;20254;-83
2023/06/12 13:47:46;;;;;;;4.67;4.37;;;27.10;37.50;;;;;;6267225;28;20659;-82
2023/06/12 13:50:51;;;;;;;5.60;5.13;;;27.20;37.20;;;;;;6275347;28;20245;-80
2023/06/12 13:53:54;;;;;;;5.17;4.87;;;27.30;37.50;;;;;;6276370;28;20229;-82
2023/06/12 13:56:57;;;;;;;5.40;5.10;;;27.40;37.40;;;;;;6265639;28;20248;-81
2023/06/12 14:00:00;;;;;;;5.27;4.80;;;27.50;37.00;;;;;;6267981;28;20277;-83
2023/06/12 14:03:04;;;;;;;5.37;5.00;;;27.50;36.80;;;;;;6265587;28;20237;-83
2023/06/12 14:06:09;;;;;;;6.47;5.00;;;27.40;37.00;;;;;;6273273;28;20233;-79
2023/06/12 14:09:12;;;;;;;7.10;4.80;;;27.30;37.10;;;;;;6263787;28;20284;-83
2023/06/12 14:12:15;;;;;;;6.30;5.37;;;27.30;37.30;;;;;;6272434;28;20338;-82
2023/06/12 14:15:18;;;;;;;4.87;4.67;;;27.50;37.20;;;;;;6270203;28;20234;-84
2023/06/12 14:18:21;;;;;;;10.40;5.23;;;27.50;37.20;;;;;;6247902;28;20229;-82
2023/06/12 14:21:27;;;;;;;6.23;5.10;;;27.50;37.20;;;;;;6268559;28;20716;-84
2023/06/12 14:24:30;;;;;;;4.87;4.60;;;27.50;37.20;;;;;;6278049;28;20230;-82
2023/06/12 14:27:42;;;;;;;6.70;4.77;;;27.10;37.30;;;;;;6269510;28;20230;-80
2023/06/12 14:30:45;;;;;;;5.17;4.67;;;26.90;37.80;;;;;;6262568;28;20360;-82
2023/06/12 14:33:48;;;;;;;5.20;5.00;;;26.70;37.50;;;;;;6266128;28;20272;-81
2023/06/12 14:36:53;;;;;;;5.23;4.80;;;26.40;38.00;;;;;;6266636;28;20262;-81
2023/06/12 14:39:56;;;;;;;5.37;4.87;;;26.60;38.20;;;;;;6265395;28;20241;-81
2023/06/12 14:42:59;;;;;;;5.80;5.33;;;26.80;38.00;;;;;;6272091;28;20370;-83
2023/06/12 14:46:02;;;;;;;7.23;4.97;;;27.10;38.00;;;;;;6272365;28;26113;-82
2023/06/12 14:49:05;;;;;;;6.13;4.40;;;27.30;37.80;;;;;;6279832;28;20371;-80
2023/06/12 14:52:09;;;;;;;7.13;5.07;;;27.30;37.70;;;;;;6269240;28;20272;-80
2023/06/12 14:55:32;;;;;;;5.57;5.03;;;27.10;37.60;;;;;;6265466;28;20256;-81
2023/06/12 14:58:35;;;;;;;5.10;4.90;;;26.90;37.30;;;;;;6286094;28;20621;-80
2023/06/12 15:01:39;;;;;;;5.60;5.10;;;26.60;37.80;;;;;;6273348;28;20237;-79
2023/06/12 15:04:42;;;;;;;5.47;4.93;;;26.60;38.00;;;;;;6267378;28;20229;-83
2023/06/12 15:07:48;;;;;;;4.37;4.17;;;26.70;37.90;;;;;;6276081;28;20286;-77
2023/06/12 15:10:51;;;;;;;5.20;4.70;;;26.90;37.70;;;;;;6271856;28;20233;-84
2023/06/12 15:13:54;;;;;;;5.40;5.07;;;27.20;37.60;;;;;;6267822;28;20246;-83
2023/06/12 15:16:57;;;;;;;5.60;5.10;;;27.20;37.70;;;;;;6269200;28;20277;-82
2023/06/12 15:20:02;;;;;;;5.20;4.90;;;27.30;37.70;;;;;;6273123;28;20249;-79
2023/06/12 15:23:06;;;;;;;6.70;4.97;;;27.10;37.80;;;;;;6259933;28;20262;-83
2023/06/12 15:26:09;;;;;;;4.97;4.70;;;27.00;37.50;;;;;;6271423;28;20234;-81
2023/06/12 15:29:13;;;;;;;5.30;4.90;;;27.00;38.10;;;;;;6262950;28;20238;-82
2023/06/12 15:32:19;;;;;;;4.97;4.77;;;27.10;37.30;;;;;;6265494;28;20254;-84
2023/06/12 15:35:22;;;;;;;5.20;4.67;;;27.00;37.30;;;;;;6270586;28;20283;-83
2023/06/12 15:38:38;;;;;;;5.83;5.00;;;27.00;37.30;;;;;;6283531;28;20652;-85
2023/06/12 15:41:41;;;;;;;5.20;4.70;;;26.90;37.10;;;;;;6276081;28;20320;-83
2023/06/12 15:44:45;;;;;;;5.13;4.63;;;27.10;37.40;;;;;;6279099;28;20382;-82
2023/06/12 15:47:48;;;;;;;5.43;5.23;;;27.10;37.50;;;;;;6284628;28;20249;-82
2023/06/12 15:50:52;;;;;;;5.53;5.13;;;27.10;37.40;;;;;;6261712;28;20250;-82
2023/06/12 15:53:56;;;;;;;5.60;5.13;;;27.10;37.80;;;;;;6278307;28;20315;-84
2023/06/12 15:57:02;;;;;;;5.20;5.00;;;27.20;37.30;;;;;;6279687;28;20234;-82
2023/06/12 16:00:09;;;;;;;5.17;4.73;;;26.90;36.70;;;;;;6264082;28;20238;-82